Time;durP1;ratioP1;P1;durP2;ratioP2;P2;SDS_P1;SDS_P2;PMS_P1;PMS_P2;Temp;Humidity;BMP_temperature;BMP_pressure;BME280_temperature;BME280_humidity;BME280_pressure;Samples;Min_cycle;Max_cycle;Signal;HPM_P1;HPM_P2
2023/05/16 00:00:52;;;;;;;;;;;;;;;16.56;66.02;99422.38;5052511;28;19909;-78
2023/05/16 00:03:18;;;;;;;;;;;;;;;16.58;66.20;99413.13;5050863;28;19912;-77
2023/05/16 00:05:43;;;;;;;;;;;;;;;16.59;65.93;99403.28;5052006;28;19987;-78
2023/05/16 00:08:08;;;;;;;;;;;;;;;16.58;66.17;99393.66;5052141;28;19955;-77
2023/05/16 00:10:33;;;;;;;;;;;;;;;16.61;65.39;99401.22;5051961;28;19909;-77
2023/05/16 00:13:00;;;;;;;;;;;;;;;16.55;66.32;99394.91;5052134;28;20376;-76
2023/05/16 00:15:28;;;;;;;;;;;;;;;16.53;66.48;99403.13;5051884;28;19966;-76
2023/05/16 00:17:57;;;;;;;;;;;;;;;16.56;65.61;99396.53;5051823;28;19908;-77
2023/05/16 00:20:23;;;;;;;;;;;;;;;16.53;65.64;99386.31;5050387;28;19919;-77
2023/05/16 00:22:49;;;;;;;;;;;;;;;16.52;66.57;99387.34;5050453;28;19916;-77
2023/05/16 00:25:14;;;;;;;;;;;;;;;16.55;66.62;99381.59;5051883;28;20328;-76
2023/05/16 00:27:39;;;;;;;;;;;;;;;16.54;66.19;99369.28;5050435;28;19916;-77
2023/05/16 00:30:05;;;;;;;;;;;;;;;16.52;66.73;99376.69;5051739;28;20009;-77
2023/05/16 00:32:30;;;;;;;;;;;;;;;16.51;65.27;99391.88;5050435;28;19908;-77
2023/05/16 00:34:56;;;;;;;;;;;;;;;16.48;66.08;99394.16;5051727;28;19909;-77
2023/05/16 00:37:21;;;;;;;;;;;;;;;16.48;65.90;99394.97;5051677;28;19915;-78
2023/05/16 00:39:46;;;;;;;;;;;;;;;16.49;65.06;99396.63;5051624;28;19956;-77
2023/05/16 00:42:11;;;;;;;;;;;;;;;16.49;65.31;99393.94;5052023;28;19908;-77
2023/05/16 00:44:38;;;;;;;;;;;;;;;16.44;66.40;99391.13;5056909;28;20373;-76
2023/05/16 00:47:03;;;;;;;;;;;;;;;16.43;66.22;99389.50;5056996;28;19912;-77
2023/05/16 00:49:28;;;;;;;;;;;;;;;16.39;65.28;99393.63;5058628;28;19915;-77
2023/05/16 00:51:54;;;;;;;;;;;;;;;16.37;64.73;99378.91;5057050;28;19913;-77
2023/05/16 00:54:21;;;;;;;;;;;;;;;16.36;65.31;99386.06;5058156;28;19966;-77
2023/05/16 00:56:47;;;;;;;;;;;;;;;16.35;65.12;99392.44;5058236;28;19913;-76
2023/05/16 00:59:12;;;;;;;;;;;;;;;16.33;65.60;99396.31;5058104;28;20300;-77
2023/05/16 01:01:37;;;;;;;;;;;;;;;16.32;65.16;99394.69;5057950;28;19909;-76
2023/05/16 01:04:03;;;;;;;;;;;;;;;16.30;65.33;99391.44;5058064;28;19905;-77
2023/05/16 01:06:28;;;;;;;;;;;;;;;16.28;65.15;99391.66;5058174;28;20297;-76
2023/05/16 01:08:53;;;;;;;;;;;;;;;16.27;65.53;99394.53;5057925;28;20389;-76
2023/05/16 01:11:22;;;;;;;;;;;;;;;16.26;65.11;99393.72;5057808;28;20127;-76
2023/05/16 01:13:53;;;;;;;;;;;;;;;16.26;65.06;99396.38;5057959;28;19915;-76
2023/05/16 01:16:22;;;;;;;;;;;;;;;16.26;65.53;99388.41;5058133;28;20362;-77
2023/05/16 01:18:55;;;;;;;;;;;;;;;16.23;64.70;99388.00;5056529;28;20314;-77
2023/05/16 01:21:34;;;;;;;;;;;;;;;16.23;64.92;99396.00;5057653;28;19908;-77
2023/05/16 01:24:03;;;;;;;;;;;;;;;16.20;64.90;99386.59;5057870;28;19908;-77
2023/05/16 01:26:28;;;;;;;;;;;;;;;16.18;64.40;99391.34;5057969;28;19995;-77
2023/05/16 01:28:54;;;;;;;;;;;;;;;16.17;64.93;99387.03;5057896;28;20074;-78
2023/05/16 01:31:20;;;;;;;;;;;;;;;16.14;64.70;99374.16;5057982;28;19916;-77
2023/05/16 01:33:46;;;;;;;;;;;;;;;16.03;65.99;99369.53;5056566;28;19995;-76
2023/05/16 01:36:23;;;;;;;;;;;;;;;15.95;65.01;99365.28;5057966;28;19943;-77
2023/05/16 01:39:01;;;;;;;;;;;;;;;15.98;64.75;99366.72;5057777;28;19921;-77
2023/05/16 01:41:29;;;;;;;;;;;;;;;15.98;64.68;99364.06;5057776;28;19943;-78
2023/05/16 01:43:58;;;;;;;;;;;;;;;15.99;64.55;99363.00;5057717;28;19912;-78
2023/05/16 01:46:25;;;;;;;;;;;;;;;16.02;64.92;99359.91;5057630;28;20309;-77
2023/05/16 01:49:00;;;;;;;;;;;;;;;16.02;64.63;99363.41;5057696;28;19909;-77
2023/05/16 01:51:29;;;;;;;;;;;;;;;16.00;64.61;99361.97;5057893;28;19948;-77
2023/05/16 01:53:57;;;;;;;;;;;;;;;15.99;64.69;99363.84;5057128;28;19963;-77
2023/05/16 01:56:24;;;;;;;;;;;;;;;16.01;64.51;99359.09;5053924;28;19909;-77
2023/05/16 01:58:51;;;;;;;;;;;;;;;16.03;65.46;99358.88;5054307;28;20374;-76
2023/05/16 02:01:16;;;;;;;;;;;;;;;16.02;65.02;99355.41;5054427;28;19916;-76
2023/05/16 02:03:41;;;;;;;;;;;;;;;16.03;65.16;99354.38;5054293;28;19909;-76
2023/05/16 02:06:06;;;;;;;;;;;;;;;16.01;64.65;99352.97;5054180;28;19909;-76
2023/05/16 02:08:32;;;;;;;;;;;;;;;15.97;65.43;99339.28;5054349;28;20283;-76
2023/05/16 02:10:57;;;;;;;;;;;;;;;16.00;65.04;99340.69;5054514;28;19912;-77
2023/05/16 02:13:22;;;;;;;;;;;;;;;15.99;65.23;99331.06;5054254;28;19953;-77
2023/05/16 02:15:48;;;;;;;;;;;;;;;15.97;65.89;99331.28;5054280;28;19915;-76
2023/05/16 02:18:13;;;;;;;;;;;;;;;15.96;65.47;99332.31;5054059;28;19991;-78
2023/05/16 02:20:38;;;;;;;;;;;;;;;15.93;66.03;99327.44;5054011;28;19916;-76
2023/05/16 02:23:04;;;;;;;;;;;;;;;15.92;65.59;99312.47;5053906;28;19915;-77
2023/05/16 02:25:29;;;;;;;;;;;;;;;15.88;66.71;99312.09;5054002;28;20047;-77
2023/05/16 02:27:55;;;;;;;;;;;;;;;15.88;65.79;99314.75;5053779;28;20018;-77
2023/05/16 02:30:20;;;;;;;;;;;;;;;15.88;65.45;99311.28;5052748;28;20366;-77
2023/05/16 02:32:47;;;;;;;;;;;;;;;15.89;65.60;99310.25;5053933;28;19909;-77
2023/05/16 02:35:13;;;;;;;;;;;;;;;15.89;65.91;99310.25;5052507;28;19967;-77
2023/05/16 02:37:38;;;;;;;;;;;;;;;15.90;66.13;99303.91;5053842;28;19940;-77
2023/05/16 02:40:07;;;;;;;;;;;;;;;15.92;64.97;99293.03;5052384;28;19912;-77
2023/05/16 02:42:33;;;;;;;;;;;;;;;15.91;65.16;99299.38;5053957;28;19909;-78
2023/05/16 02:44:58;;;;;;;;;;;;;;;15.89;65.63;99300.41;5053613;28;19962;-77
2023/05/16 02:47:23;;;;;;;;;;;;;;;15.88;66.39;99298.78;5053454;28;19908;-77
2023/05/16 02:49:51;;;;;;;;;;;;;;;15.84;66.72;99307.44;5053377;28;19904;-78
2023/05/16 02:52:16;;;;;;;;;;;;;;;15.82;66.18;99309.50;5052183;28;19927;-77
2023/05/16 02:54:41;;;;;;;;;;;;;;;15.83;66.56;99308.47;5053399;28;19919;-78
2023/05/16 02:57:06;;;;;;;;;;;;;;;15.86;65.88;99316.00;5053338;28;19947;-77
2023/05/16 02:59:32;;;;;;;;;;;;;;;15.81;66.33;99316.66;5052045;28;20313;-77
2023/05/16 03:01:57;;;;;;;;;;;;;;;15.81;66.36;99313.19;5053207;28;19915;-77
2023/05/16 03:04:22;;;;;;;;;;;;;;;15.80;66.23;99307.06;5053223;28;19924;-78
2023/05/16 03:06:48;;;;;;;;;;;;;;;15.79;66.18;99300.09;5053034;28;20324;-76
2023/05/16 03:09:13;;;;;;;;;;;;;;;15.78;66.63;99295.00;5053087;28;20016;-77
2023/05/16 03:11:38;;;;;;;;;;;;;;;15.75;66.77;99300.75;5053238;28;19948;-77
2023/05/16 03:14:04;;;;;;;;;;;;;;;15.69;67.24;99296.28;5051820;28;19909;-77
2023/05/16 03:16:29;;;;;;;;;;;;;;;15.67;66.48;99309.00;5053054;28;19908;-77
2023/05/16 03:18:55;;;;;;;;;;;;;;;15.64;66.88;99302.28;5052890;28;20364;-77
2023/05/16 03:21:20;;;;;;;;;;;;;;;15.68;66.04;99300.00;5051648;28;19909;-77
2023/05/16 03:23:45;;;;;;;;;;;;;;;15.73;65.50;99297.50;5052980;28;20359;-77
2023/05/16 03:26:10;;;;;;;;;;;;;;;15.73;66.13;99290.31;5052824;28;19999;-76
2023/05/16 03:28:36;;;;;;;;;;;;;;;15.72;66.22;99286.03;5052615;28;19924;-76
2023/05/16 03:31:01;;;;;;;;;;;;;;;15.69;66.78;99283.00;5051557;28;19909;-78
2023/05/16 03:33:26;;;;;;;;;;;;;;;15.66;66.73;99280.75;5052607;28;19962;-76
2023/05/16 03:35:51;;;;;;;;;;;;;;;15.67;65.84;99283.22;5052686;28;20301;-77
2023/05/16 03:38:17;;;;;;;;;;;;;;;15.66;65.76;99288.75;5051182;28;19908;-75
2023/05/16 03:40:43;;;;;;;;;;;;;;;15.65;66.70;99295.09;5051180;28;19913;-78
2023/05/16 03:43:08;;;;;;;;;;;;;;;15.66;66.19;99296.72;5052448;28;20373;-77
2023/05/16 03:45:34;;;;;;;;;;;;;;;15.64;65.85;99294.28;5052271;28;19916;-78
2023/05/16 03:47:59;;;;;;;;;;;;;;;15.66;66.04;99289.56;5052375;28;20371;-77
2023/05/16 03:50:25;;;;;;;;;;;;;;;15.69;66.25;99297.13;5052473;28;19912;-77
2023/05/16 03:52:52;;;;;;;;;;;;;;;15.71;65.87;99300.38;5052328;28;19908;-77
2023/05/16 03:55:18;;;;;;;;;;;;;;;15.73;65.43;99305.47;5052051;28;19912;-78
2023/05/16 03:57:43;;;;;;;;;;;;;;;15.72;65.58;99304.66;5051939;28;19966;-77
2023/05/16 04:00:11;;;;;;;;;;;;;;;15.74;65.95;99320.41;5052223;28;19917;-77
2023/05/16 04:02:36;;;;;;;;;;;;;;;15.70;66.13;99317.38;5052178;28;19931;-77
2023/05/16 04:05:02;;;;;;;;;;;;;;;15.70;65.34;99317.38;5052304;28;20425;-77
2023/05/16 04:07:27;;;;;;;;;;;;;;;15.71;65.82;99313.69;5050935;28;20282;-77
2023/05/16 04:09:53;;;;;;;;;;;;;;;15.67;65.22;99327.63;5052143;28;19931;-77
2023/05/16 04:12:18;;;;;;;;;;;;;;;15.64;65.58;99320.09;5052155;28;20035;-77
2023/05/16 04:14:43;;;;;;;;;;;;;;;15.64;65.61;99318.25;5052089;28;20393;-78
2023/05/16 04:17:10;;;;;;;;;;;;;;;15.68;65.37;99319.44;5051717;28;19990;-78
2023/05/16 04:19:35;;;;;;;;;;;;;;;15.70;65.00;99320.03;5051645;28;19916;-77
2023/05/16 04:22:00;;;;;;;;;;;;;;;15.70;64.90;99320.03;5050636;28;19915;-76
2023/05/16 04:24:27;;;;;;;;;;;;;;;15.71;65.50;99321.66;5051936;28;20003;-76
2023/05/16 04:26:53;;;;;;;;;;;;;;;15.62;65.84;99319.47;5051925;28;19916;-77
2023/05/16 04:29:18;;;;;;;;;;;;;;;15.61;65.70;99323.19;5051590;28;19916;-78
2023/05/16 04:31:43;;;;;;;;;;;;;;;15.66;65.72;99324.16;5052004;28;19962;-77
2023/05/16 04:34:09;;;;;;;;;;;;;;;15.75;65.61;99332.69;5051670;28;19944;-77
2023/05/16 04:36:34;;;;;;;;;;;;;;;15.79;66.08;99326.72;5051575;28;19909;-78
2023/05/16 04:38:59;;;;;;;;;;;;;;;15.83;66.13;99322.59;5051762;28;19916;-77
2023/05/16 04:41:25;;;;;;;;;;;;;;;15.90;65.28;99330.53;5050258;28;20356;-78
2023/05/16 04:43:50;;;;;;;;;;;;;;;15.93;66.23;99329.28;5051755;28;19909;-77
2023/05/16 04:46:16;;;;;;;;;;;;;;;15.97;65.38;99327.81;5051712;28;20350;-77
2023/05/16 04:48:41;;;;;;;;;;;;;;;16.01;65.10;99332.47;5051663;28;19912;-78
2023/05/16 04:51:06;;;;;;;;;;;;;;;16.07;65.21;99325.47;5050321;28;19909;-77
2023/05/16 04:53:32;;;;;;;;;;;;;;;16.12;65.16;99317.63;5051546;28;20043;-78
2023/05/16 04:55:57;;;;;;;;;;;;;;;16.12;65.73;99322.94;5051362;28;19909;-78
2023/05/16 04:58:23;;;;;;;;;;;;;;;16.09;65.50;99320.72;5051367;28;19915;-78
2023/05/16 05:00:48;;;;;;;;;;;;;;;16.11;67.08;99322.13;5049947;28;20003;-77
2023/05/16 05:03:13;;;;;;;;;;;;;;;16.13;65.52;99322.72;5049867;28;19908;-78
2023/05/16 05:05:39;;;;;;;;;;;;;;;16.19;65.59;99319.19;5051598;28;19915;-78
2023/05/16 05:08:05;;;;;;;;;;;;;;;16.26;65.22;99323.63;5051409;28;19951;-77
2023/05/16 05:10:30;;;;;;;;;;;;;;;16.30;64.98;99316.84;5050077;28;19952;-77
2023/05/16 05:12:56;;;;;;;;;;;;;;;16.28;66.27;99325.06;5051318;28;19908;-77
2023/05/16 05:15:21;;;;;;;;;;;;;;;16.23;65.18;99329.41;5051499;28;19995;-78
2023/05/16 05:17:46;;;;;;;;;;;;;;;16.23;65.41;99332.88;5051167;28;20094;-77
2023/05/16 05:20:11;;;;;;;;;;;;;;;16.25;65.80;99332.66;5051046;28;19913;-78
2023/05/16 05:22:37;;;;;;;;;;;;;;;16.27;64.88;99335.94;5050872;28;20403;-77
2023/05/16 05:25:02;;;;;;;;;;;;;;;16.25;66.01;99330.81;5049774;28;19909;-78
2023/05/16 05:27:28;;;;;;;;;;;;;;;16.29;65.46;99320.53;5045397;28;20425;-76
2023/05/16 05:29:53;;;;;;;;;;;;;;;16.32;65.07;99328.91;5050207;28;20420;-78
2023/05/16 05:32:18;;;;;;;;;;;;;;;16.35;65.21;99327.66;5048856;28;19920;-76
2023/05/16 05:34:44;;;;;;;;;;;;;;;16.40;65.15;99328.66;5053234;28;20397;-77
2023/05/16 05:37:09;;;;;;;;;;;;;;;16.48;65.30;99331.03;5052348;28;19909;-78
2023/05/16 05:39:34;;;;;;;;;;;;;;;16.58;64.83;99325.16;5053783;28;19928;-77
2023/05/16 05:42:02;;;;;;;;;;;;;;;16.62;64.96;99317.53;5054459;28;19909;-77
2023/05/16 05:44:27;;;;;;;;;;;;;;;16.58;64.83;99322.50;5054526;28;19908;-77
2023/05/16 05:46:53;;;;;;;;;;;;;;;16.56;64.98;99321.09;5053768;28;20312;-77
2023/05/16 05:49:18;;;;;;;;;;;;;;;16.53;65.27;99317.84;5052580;28;20325;-77
2023/05/16 05:51:43;;;;;;;;;;;;;;;16.61;64.93;99321.25;5053509;28;19913;-77
2023/05/16 05:54:09;;;;;;;;;;;;;;;16.65;65.26;99314.44;5052309;28;20380;-77
2023/05/16 05:56:34;;;;;;;;;;;;;;;16.75;64.62;99315.56;5053239;28;19913;-77
2023/05/16 05:58:59;;;;;;;;;;;;;;;16.84;64.22;99314.22;5054701;28;19916;-78
2023/05/16 06:01:26;;;;;;;;;;;;;;;16.90;64.33;99317.03;5055443;28;19944;-77
2023/05/16 06:03:51;;;;;;;;;;;;;;;16.96;64.03;99319.63;5054589;28;20359;-77
2023/05/16 06:06:16;;;;;;;;;;;;;;;17.03;63.55;99314.19;5053818;28;19919;-76
2023/05/16 06:08:41;;;;;;;;;;;;;;;17.06;63.84;99317.22;5053657;28;19916;-76
2023/05/16 06:11:07;;;;;;;;;;;;;;;17.09;64.54;99311.47;5050366;28;19920;-76
2023/05/16 06:13:33;;;;;;;;;;;;;;;17.13;63.63;99306.50;5049243;28;19917;-77
2023/05/16 06:15:58;;;;;;;;;;;;;;;17.16;64.16;99314.06;5049582;28;19962;-77
2023/05/16 06:18:23;;;;;;;;;;;;;;;17.20;63.88;99322.41;5049719;28;20408;-78
2023/05/16 06:20:49;;;;;;;;;;;;;;;17.26;63.86;99322.31;5052178;28;19975;-77
2023/05/16 06:23:14;;;;;;;;;;;;;;;17.32;62.96;99325.94;5052564;28;20007;-78
2023/05/16 06:25:39;;;;;;;;;;;;;;;17.32;63.78;99318.75;5053774;28;20344;-77
2023/05/16 06:28:05;;;;;;;;;;;;;;;17.24;64.88;99312.91;5050845;28;19917;-75
2023/05/16 06:30:30;;;;;;;;;;;;;;;17.30;64.18;99322.69;5051223;28;19912;-77
2023/05/16 06:32:56;;;;;;;;;;;;;;;17.32;64.62;99320.59;5050898;28;20371;-77
2023/05/16 06:35:22;;;;;;;;;;;;;;;17.36;64.06;99322.59;5053959;28;19909;-78
2023/05/16 06:37:47;;;;;;;;;;;;;;;17.40;64.17;99313.09;5052573;28;19959;-76
2023/05/16 06:40:12;;;;;;;;;;;;;;;17.44;63.88;99316.94;5052933;28;19974;-78
2023/05/16 06:42:38;;;;;;;;;;;;;;;17.47;63.93;99308.47;5046077;28;20370;-77
2023/05/16 06:45:03;;;;;;;;;;;;;;;17.51;64.15;99300.00;5051492;28;20417;-77
2023/05/16 06:47:28;;;;;;;;;;;;;;;17.51;64.25;99292.00;5051921;28;19965;-76
2023/05/16 06:49:54;;;;;;;;;;;;;;;17.54;63.87;99281.66;5050892;28;19916;-77
2023/05/16 06:52:20;;;;;;;;;;;;;;;17.59;63.97;99279.13;5048413;28;19944;-76
2023/05/16 06:54:45;;;;;;;;;;;;;;;17.63;64.15;99287.47;5043734;28;19920;-77
2023/05/16 06:57:10;;;;;;;;;;;;;;;17.65;63.98;99288.06;5047210;28;19909;-77
2023/05/16 06:59:35;;;;;;;;;;;;;;;17.70;63.81;99281.03;5042927;28;19924;-77
2023/05/16 07:02:01;;;;;;;;;;;;;;;17.73;64.47;99283.22;5050697;28;19978;-78
2023/05/16 07:04:26;;;;;;;;;;;;;;;17.78;63.77;99282.53;5040481;28;19912;-77
2023/05/16 07:06:52;;;;;;;;;;;;;;;17.82;64.38;99272.22;5051364;28;19909;-78
2023/05/16 07:09:17;;;;;;;;;;;;;;;17.89;63.22;99278.28;5047665;28;19920;-77
2023/05/16 07:11:42;;;;;;;;;;;;;;;17.94;63.22;99279.22;5051098;28;19920;-79
2023/05/16 07:14:08;;;;;;;;;;;;;;;18.02;63.01;99286.88;5051508;28;19920;-78
2023/05/16 07:16:34;;;;;;;;;;;;;;;18.09;62.39;99284.09;5052574;28;19962;-76
2023/05/16 07:18:59;;;;;;;;;;;;;;;18.18;62.84;99301.38;5051098;28;20007;-77
2023/05/16 07:21:24;;;;;;;;;;;;;;;18.24;62.08;99287.09;5050806;28;19916;-77
2023/05/16 07:23:49;;;;;;;;;;;;;;;18.32;62.81;99289.41;5052621;28;20013;-78
2023/05/16 07:26:15;;;;;;;;;;;;;;;18.37;62.03;99300.22;5051551;28;19920;-78
2023/05/16 07:28:40;;;;;;;;;;;;;;;18.41;61.95;99297.88;5050856;28;20388;-78
2023/05/16 07:31:07;;;;;;;;;;;;;;;18.46;61.65;99287.28;5051917;28;19959;-77
2023/05/16 07:33:32;;;;;;;;;;;;;;;18.54;61.48;99280.78;5051050;28;19919;-78
2023/05/16 07:35:57;;;;;;;;;;;;;;;18.62;60.46;99270.59;5052147;28;19908;-78
2023/05/16 07:38:23;;;;;;;;;;;;;;;18.63;60.71;99264.19;5052179;28;19912;-77
2023/05/16 07:40:48;;;;;;;;;;;;;;;18.68;61.09;99252.78;5051969;28;19920;-77
2023/05/16 07:43:13;;;;;;;;;;;;;;;18.72;60.90;99265.44;5050598;28;20313;-78
2023/05/16 07:45:39;;;;;;;;;;;;;;;18.74;60.83;99265.19;5050222;28;19948;-78
2023/05/16 07:48:04;;;;;;;;;;;;;;;18.71;61.16;99247.75;5040063;28;19978;-77
2023/05/16 07:50:29;;;;;;;;;;;;;;;18.69;60.68;99243.69;5041473;28;19909;-77
2023/05/16 07:52:55;;;;;;;;;;;;;;;18.67;61.30;99254.63;5037738;28;19924;-76
2023/05/16 07:55:21;;;;;;;;;;;;;;;18.69;61.24;99246.38;5053268;28;19917;-76
2023/05/16 07:57:46;;;;;;;;;;;;;;;18.70;61.39;99239.97;5045212;28;19909;-75
2023/05/16 08:00:12;;;;;;;;;;;;;;;18.71;61.05;99233.56;5048885;28;19917;-78
2023/05/16 08:02:38;;;;;;;;;;;;;;;18.73;60.95;99236.81;5047297;28;19970;-78
2023/05/16 08:05:03;;;;;;;;;;;;;;;18.80;60.13;99234.00;5048935;28;19909;-78
2023/05/16 08:07:29;;;;;;;;;;;;;;;18.82;60.06;99230.03;5050368;28;19912;-78
2023/05/16 08:09:54;;;;;;;;;;;;;;;18.90;59.94;99231.53;5050558;28;19912;-77
2023/05/16 08:12:19;;;;;;;;;;;;;;;19.00;59.58;99224.50;5049376;28;19990;-77
2023/05/16 08:14:44;;;;;;;;;;;;;;;19.05;60.03;99215.75;5054248;28;19916;-77
2023/05/16 08:17:10;;;;;;;;;;;;;;;19.07;59.43;99237.72;5049949;28;19960;-76
2023/05/16 08:19:35;;;;;;;;;;;;;;;19.04;59.75;99248.91;5043096;28;19921;-77
2023/05/16 08:22:00;;;;;;;;;;;;;;;18.96;59.64;99258.13;5042386;28;20629;-78
2023/05/16 08:24:26;;;;;;;;;;;;;;;18.96;59.88;99255.44;5051586;28;19916;-77
2023/05/16 08:26:51;;;;;;;;;;;;;;;19.01;59.94;99254.72;5051187;28;19936;-78
2023/05/16 08:29:16;;;;;;;;;;;;;;;19.11;59.46;99268.28;5049374;28;20458;-77
2023/05/16 08:31:41;;;;;;;;;;;;;;;19.22;59.30;99283.47;5048519;28;20003;-77
2023/05/16 08:34:08;;;;;;;;;;;;;;;19.34;59.13;99288.81;5059938;28;19912;-78
2023/05/16 08:36:34;;;;;;;;;;;;;;;19.49;58.80;99294.44;5047764;28;19916;-76
2023/05/16 08:38:59;;;;;;;;;;;;;;;19.62;58.33;99299.50;5049962;28;19916;-77
2023/05/16 08:41:24;;;;;;;;;;;;;;;19.74;57.78;99291.38;5049647;28;20367;-78
2023/05/16 08:43:50;;;;;;;;;;;;;;;19.86;57.82;99281.41;5060273;28;20035;-78
2023/05/16 08:46:19;;;;;;;;;;;;;;;19.97;57.38;99263.59;5052975;28;20373;-78
2023/05/16 08:48:45;;;;;;;;;;;;;;;20.10;57.54;99252.56;5048211;28;19920;-78
2023/05/16 08:51:11;;;;;;;;;;;;;;;20.23;57.38;99244.16;5048062;28;19913;-77
2023/05/16 08:53:40;;;;;;;;;;;;;;;20.42;56.66;99242.00;5047490;28;19935;-78
2023/05/16 08:56:06;;;;;;;;;;;;;;;20.55;56.31;99236.28;5046049;28;19946;-78
2023/05/16 08:58:31;;;;;;;;;;;;;;;20.66;55.50;99247.13;5045994;28;19908;-78
2023/05/16 09:00:56;;;;;;;;;;;;;;;20.62;56.05;99242.25;5048338;28;19923;-76
2023/05/16 09:03:23;;;;;;;;;;;;;;;20.62;56.17;99234.22;5051009;28;19919;-77
2023/05/16 09:05:49;;;;;;;;;;;;;;;20.63;55.47;99235.84;5054442;28;19913;-77
2023/05/16 09:08:15;;;;;;;;;;;;;;;20.71;55.90;99241.81;5052567;28;19919;-77
2023/05/16 09:10:40;;;;;;;;;;;;;;;20.85;55.66;99240.38;5055807;28;19912;-77
2023/05/16 09:13:05;;;;;;;;;;;;;;;21.06;55.11;99241.41;5055050;28;20282;-79
2023/05/16 09:15:31;;;;;;;;;;;;;;;21.29;54.56;99229.56;5054623;28;19962;-75
2023/05/16 09:17:58;;;;;;;;;;;;;;;21.46;54.29;99231.06;5049797;28;20421;-76
2023/05/16 09:20:24;;;;;;;;;;;;;;;21.62;53.92;99231.19;5042625;28;19929;-77
2023/05/16 09:22:51;;;;;;;;;;;;;;;21.77;51.91;99231.31;5068474;28;20430;-77
2023/05/16 09:25:17;;;;;;;;;;;;;;;21.95;52.20;99222.00;5074505;28;19908;-77
2023/05/16 09:27:42;;;;;;;;;;;;;;;22.11;51.96;99221.06;5063040;28;20063;-78
2023/05/16 09:30:07;;;;;;;;;;;;;;;22.28;50.14;99227.06;5054786;28;20053;-79
2023/05/16 09:32:33;;;;;;;;;;;;;;;22.40;50.84;99226.88;5051609;28;19905;-77
2023/05/16 09:34:58;;;;;;;;;;;;;;;22.42;50.39;99222.84;5049508;28;19919;-77
2023/05/16 09:37:24;;;;;;;;;;;;;;;22.52;50.70;99211.31;5053563;28;19912;-77
2023/05/16 09:39:50;;;;;;;;;;;;;;;22.59;50.25;99209.19;5054555;28;20329;-78
2023/05/16 09:42:17;;;;;;;;;;;;;;;22.58;50.25;99198.69;5043362;28;19912;-78
2023/05/16 09:44:46;;;;;;;;;;;;;;;22.48;50.47;99202.16;5049487;28;19913;-78
2023/05/16 09:47:13;;;;;;;;;;;;;;;22.56;48.78;99195.44;5039577;28;19917;-77
2023/05/16 09:49:38;;;;;;;;;;;;;;;22.70;49.67;99189.28;5047733;28;20330;-78
2023/05/16 09:52:04;;;;;;;;;;;;;;;22.88;49.62;99187.19;5044968;28;19916;-77
2023/05/16 09:54:33;;;;;;;;;;;;;;;22.96;49.63;99182.09;5044385;28;20011;-78
2023/05/16 09:56:59;;;;;;;;;;;;;;;22.82;49.96;99176.44;5069285;28;19908;-77
2023/05/16 09:59:25;;;;;;;;;;;;;;;22.64;50.66;99170.72;5072572;28;20407;-77
2023/05/16 10:01:51;;;;;;;;;;;;;;;22.48;51.04;99167.97;5068070;28;19920;-77
2023/05/16 10:04:17;;;;;;;;;;;;;;;22.43;51.26;99164.47;5071097;28;19922;-77
2023/05/16 10:06:42;;;;;;;;;;;;;;;22.52;51.39;99169.06;5064147;28;19920;-78
2023/05/16 10:09:11;;;;;;;;;;;;;;;22.65;51.18;99167.75;5070665;28;19959;-77
2023/05/16 10:11:41;;;;;;;;;;;;;;;22.61;51.30;99149.72;5070764;28;20321;-77
2023/05/16 10:14:06;;;;;;;;;;;;;;;22.53;51.53;99134.91;5060912;28;19963;-78
2023/05/16 10:16:32;;;;;;;;;;;;;;;22.40;51.85;99124.66;5073145;28;19963;-78
2023/05/16 10:18:59;;;;;;;;;;;;;;;22.23;52.19;99121.34;5073860;28;19912;-77
2023/05/16 10:21:24;;;;;;;;;;;;;;;22.10;52.72;99112.69;5073848;28;20365;-77
2023/05/16 10:23:50;;;;;;;;;;;;;;;22.02;52.79;99093.53;5065271;28;19912;-78
2023/05/16 10:26:16;;;;;;;;;;;;;;;21.96;52.96;99070.41;5068860;28;20396;-78
2023/05/16 10:28:41;;;;;;;;;;;;;;;21.94;53.41;99049.16;5059975;28;19921;-78
2023/05/16 10:31:07;;;;;;;;;;;;;;;22.00;53.02;99025.78;5058325;28;20498;-78
2023/05/16 10:33:32;;;;;;;;;;;;;;;22.05;53.08;99026.66;5062282;28;19913;-77
2023/05/16 10:35:57;;;;;;;;;;;;;;;22.10;53.34;99063.50;5060915;28;19913;-78
2023/05/16 10:38:23;;;;;;;;;;;;;;;22.28;53.07;99097.97;5058942;28;19920;-77
2023/05/16 10:40:49;;;;;;;;;;;;;;;22.54;52.62;99141.91;5065378;28;19935;-78
2023/05/16 10:43:25;;;;;;;;;;;;;;;22.71;52.38;99164.00;5069002;28;20341;-77
2023/05/16 10:46:01;;;;;;;;;;;;;;;22.92;51.77;99143.31;5060637;28;20424;-79
2023/05/16 10:48:29;;;;;;;;;;;;;;;23.04;51.58;99148.47;5061773;28;19916;-78
2023/05/16 10:50:54;;;;;;;;;;;;;;;23.09;51.52;99143.09;5065148;28;20037;-77
2023/05/16 10:53:20;;;;;;;;;;;;;;;23.11;51.71;99146.31;5070366;28;20010;-78
2023/05/16 10:55:57;;;;;;;;;;;;;;;23.06;51.48;99130.97;5065044;28;20431;-78
2023/05/16 10:58:43;;;;;;;;;;;;;;;23.05;51.78;99123.16;5064696;28;19924;-78
2023/05/16 11:01:15;;;;;;;;;;;;;;;23.06;51.91;99117.50;5058355;28;20058;-77
2023/05/16 11:03:55;;;;;;;;;;;;;;;22.99;51.21;99113.44;5061007;28;19920;-77
2023/05/16 11:06:21;;;;;;;;;;;;;;;22.97;51.64;99107.53;5072240;28;19990;-79
2023/05/16 11:11:38;;;;;;;;;;;;;;;22.80;52.38;99089.75;5070905;28;19924;-77
2023/05/16 11:14:03;;;;;;;;;;;;;;;22.78;52.47;99074.91;5059683;28;20368;-78
2023/05/16 11:16:28;;;;;;;;;;;;;;;22.77;51.69;99071.41;5055815;28;19917;-78
2023/05/16 11:18:54;;;;;;;;;;;;;;;22.76;52.19;99058.22;5064521;28;20393;-78
2023/05/16 11:21:19;;;;;;;;;;;;;;;22.97;52.08;99053.66;5071080;28;19998;-79
2023/05/16 11:24:05;;;;;;;;;;;;;;;23.29;50.44;99056.88;5067444;28;19915;-79
2023/05/16 11:26:30;;;;;;;;;;;;;;;23.37;51.07;99058.22;5068172;28;19912;-78
2023/05/16 11:28:57;;;;;;;;;;;;;;;23.33;51.27;99057.13;5070850;28;19923;-76
2023/05/16 11:31:22;;;;;;;;;;;;;;;23.28;51.01;99065.22;5068485;28;20373;-78
2023/05/16 11:33:48;;;;;;;;;;;;;;;23.13;51.13;99047.22;5067701;28;19920;-77
2023/05/16 11:36:13;;;;;;;;;;;;;;;23.04;51.48;99048.84;5069872;28;19920;-78
2023/05/16 11:38:42;;;;;;;;;;;;;;;23.02;51.41;99045.59;5068892;28;19918;-78
2023/05/16 11:41:10;;;;;;;;;;;;;;;23.03;51.62;99055.28;5068577;28;20033;-77
2023/05/16 11:43:42;;;;;;;;;;;;;;;23.06;51.46;99060.16;5064491;28;19999;-78
2023/05/16 11:46:11;;;;;;;;;;;;;;;23.11;51.41;99071.72;5069163;28;19955;-77
2023/05/16 11:48:36;;;;;;;;;;;;;;;23.21;51.32;99078.19;5069906;28;20348;-78
2023/05/16 11:51:02;;;;;;;;;;;;;;;23.49;51.07;99072.19;5071335;28;19912;-78
2023/05/16 11:53:27;;;;;;;;;;;;;;;23.84;50.48;99078.59;5072057;28;19908;-76
2023/05/16 11:55:52;;;;;;;;;;;;;;;24.10;49.82;99069.31;5071687;28;20371;-79
2023/05/16 11:58:18;;;;;;;;;;;;;;;24.31;49.36;99072.72;5069985;28;19969;-78
2023/05/16 12:00:48;;;;;;;;;;;;;;;24.39;49.42;99067.53;5069898;28;19917;-77
2023/05/16 12:03:13;;;;;;;;;;;;;;;24.47;49.08;99063.44;5066343;28;20057;-76
2023/05/16 12:05:48;;;;;;;;;;;;;;;24.40;49.04;99071.03;5061791;28;19912;-79
2023/05/16 12:08:15;;;;;;;;;;;;;;;24.29;49.86;99072.19;5063321;28;19920;-78
2023/05/16 12:10:41;;;;;;;;;;;;;;;24.14;50.16;99077.63;5071043;28;19995;-78
2023/05/16 12:13:07;;;;;;;;;;;;;;;24.01;50.46;99081.75;5070833;28;20002;-78
2023/05/16 12:15:32;;;;;;;;;;;;;;;23.87;50.73;99078.84;5070855;28;19908;-78
2023/05/16 12:17:57;;;;;;;;;;;;;;;23.75;51.12;99081.03;5070111;28;20335;-78
2023/05/16 12:20:24;;;;;;;;;;;;;;;23.58;50.85;99075.97;5066118;28;19923;-78
2023/05/16 12:22:50;;;;;;;;;;;;;;;23.45;51.14;99063.03;5069192;28;19913;-78
2023/05/16 12:25:26;;;;;;;;;;;;;;;23.37;51.64;99053.63;5069992;28;20369;-78
2023/05/16 12:27:52;;;;;;;;;;;;;;;23.31;51.76;99053.91;5062041;28;20535;-77
2023/05/16 12:30:18;;;;;;;;;;;;;;;23.25;51.97;99055.00;5068396;28;20381;-77
2023/05/16 12:32:43;;;;;;;;;;;;;;;23.23;52.13;99057.16;5067631;28;19920;-77
2023/05/16 12:35:10;;;;;;;;;;;;;;;23.23;51.97;99057.16;5065236;28;19916;-77
2023/05/16 12:37:36;;;;;;;;;;;;;;;23.26;52.28;99057.44;5070256;28;19912;-78
2023/05/16 12:40:03;;;;;;;;;;;;;;;23.28;52.07;99057.16;5059103;28;19912;-78
2023/05/16 12:42:28;;;;;;;;;;;;;;;23.27;52.14;99053.66;5062981;28;20307;-76
2023/05/16 12:44:56;;;;;;;;;;;;;;;23.29;51.83;99061.47;5070328;28;19995;-76